Time;durP1;ratioP1;P1;durP2;ratioP2;P2;SDS_P1;SDS_P2;PMS_P1;PMS_P2;Temp;Humidity;BMP_temperature;BMP_pressure;BME280_temperature;BME280_humidity;BME280_pressure;Samples;Min_cycle;Max_cycle;Signal;HPM_P1;HPM_P2
2022/12/18 00:01:21;;;;;;;37.63;16.50;;;;;;;-0.01;85.27;98656.12;1775453;80;20972;-78
2022/12/18 00:03:49;;;;;;;40.12;16.15;;;;;;;-0.04;85.47;98659.98;1766448;80;20978;-78
2022/12/18 00:06:16;;;;;;;40.28;17.73;;;;;;;-0.01;85.75;98654.41;1758571;81;21024;-78
2022/12/18 00:08:44;;;;;;;39.60;18.12;;;;;;;0.04;85.89;98653.20;1768533;80;20961;-77
2022/12/18 00:11:16;;;;;;;38.55;16.05;;;;;;;0.08;85.79;98666.77;1777432;81;21012;-76
2022/12/18 00:13:43;;;;;;;40.30;16.95;;;;;;;0.05;85.24;98671.92;1764085;81;21040;-76
2022/12/18 00:16:14;;;;;;;40.95;18.27;;;;;;;0.03;85.48;98677.50;1773715;81;21170;-75
2022/12/18 00:18:42;;;;;;;37.63;17.57;;;;;;;0.08;85.95;98676.33;1704118;83;21556;-75
2022/12/18 00:21:11;;;;;;;38.10;16.70;;;;;;;0.05;85.85;98686.26;1752579;80;21008;-77
2022/12/18 00:23:41;;;;;;;40.98;18.15;;;;;;;0.04;85.71;98683.17;1750604;81;20973;-76
2022/12/18 00:26:17;;;;;;;38.02;16.75;;;;;;;0.03;85.80;98690.53;1757821;80;21069;-77
2022/12/18 00:28:47;;;;;;;43.20;18.17;;;;;;;-0.03;85.99;98691.70;1755893;81;21518;-79
2022/12/18 00:31:18;;;;;;;37.75;17.60;;;;;;;0.03;86.19;98694.44;1754789;81;20993;-78
2022/12/18 00:33:45;;;;;;;41.37;17.12;;;;;;;0.03;85.67;98700.95;1757452;81;20946;-77
2022/12/18 00:36:20;;;;;;;41.20;17.62;;;;;;;-0.01;85.89;98698.70;1753527;81;21044;-78
2022/12/18 00:38:48;;;;;;;40.10;17.70;;;;;;;-0.02;86.13;98695.65;1753811;80;21060;-78
2022/12/18 00:42:55;;;;;;;37.78;16.32;;;;;;;0.06;86.39;98701.45;1756357;81;21016;-77
2022/12/18 00:43:47;;;;;;;37.98;16.07;;;;;;;0.03;85.49;98705.31;1757874;80;21036;-77
2022/12/18 00:46:13;;;;;;;38.67;16.40;;;;;;;-0.03;85.73;98709.94;1752683;81;20991;-77
2022/12/18 00:48:40;;;;;;;41.18;17.02;;;;;;;-0.02;85.98;98716.91;1749408;80;20989;-76
2022/12/18 00:51:08;;;;;;;36.15;16.00;;;;;;;0.01;86.16;98711.78;1754478;80;21262;-76
2022/12/18 00:53:35;;;;;;;37.05;15.98;;;;;;;0.09;86.30;98715.88;1754335;80;20989;-77
2022/12/18 00:56:02;;;;;;;44.58;17.73;;;;;;;0.14;86.30;98724.69;1754203;81;21016;-77
2022/12/18 00:58:29;;;;;;;37.78;16.93;;;;;;;0.15;86.04;98714.71;1751669;81;21024;-77
2022/12/18 01:00:56;;;;;;;36.42;16.45;;;;;;;0.13;85.84;98726.40;1752477;81;21108;-78
2022/12/18 01:03:23;;;;;;;35.23;15.83;;;;;;;0.09;85.32;98723.70;1748053;81;21020;-79
2022/12/18 01:05:50;;;;;;;37.10;17.17;;;;;;;0.06;85.32;98729.72;1717615;82;21427;-80
2022/12/18 01:08:18;;;;;;;38.67;17.92;;;;;;;0.01;85.15;98730.44;1750376;81;21448;-80
2022/12/18 01:10:45;;;;;;;35.95;16.32;;;;;;;-0.02;85.16;98729.53;1754117;81;20957;-79
2022/12/18 01:13:11;;;;;;;36.75;17.02;;;;;;;-0.07;85.20;98740.67;1753689;80;21032;-76
2022/12/18 01:15:39;;;;;;;41.18;18.20;;;;;;;-0.12;85.21;98727.54;1763221;81;20981;-78
2022/12/18 01:18:07;;;;;;;38.05;17.32;;;;;;;-0.09;85.57;98725.43;1749008;81;20969;-76
2022/12/18 01:20:35;;;;;;;43.40;18.50;;;;;;;-0.08;85.54;98724.58;1751846;81;21011;-76
2022/12/18 01:23:02;;;;;;;40.15;16.93;;;;;;;-0.11;85.66;98725.39;1752494;80;20988;-79
2022/12/18 01:25:29;;;;;;;40.33;18.05;;;;;;;-0.07;85.69;98717.22;1753088;81;20979;-79
2022/12/18 01:27:55;;;;;;;38.23;16.48;;;;;;;-0.07;85.68;98722.02;1752784;81;21025;-79
2022/12/18 01:30:22;;;;;;;42.03;17.57;;;;;;;-0.08;85.61;98726.75;1746736;81;21015;-79
2022/12/18 01:32:49;;;;;;;39.10;17.20;;;;;;;-0.07;85.51;98732.45;1754837;81;20957;-78
2022/12/18 01:35:17;;;;;;;41.05;17.98;;;;;;;-0.09;85.54;98735.86;1763392;81;20994;-79
2022/12/18 01:37:44;;;;;;;42.08;17.52;;;;;;;-0.11;85.69;98734.91;1751826;81;21037;-79
2022/12/18 01:40:11;;;;;;;43.63;18.95;;;;;;;-0.12;85.60;98722.73;1758962;81;20941;-80
2022/12/18 01:42:38;;;;;;;39.08;17.30;;;;;;;-0.17;85.77;98733.92;1751885;81;21421;-79
2022/12/18 01:45:13;;;;;;;36.38;17.90;;;;;;;-0.18;86.03;98737.38;1752869;81;21006;-78
2022/12/18 01:47:50;;;;;;;40.92;17.07;;;;;;;-0.16;86.03;98736.98;1757965;80;21488;-78
2022/12/18 01:50:24;;;;;;;42.08;18.48;;;;;;;-0.20;86.06;98732.97;1785071;80;20981;-80
2022/12/18 01:53:07;;;;;;;42.13;18.73;;;;;;;-0.21;86.03;98733.38;1761048;80;20972;-76
2022/12/18 01:55:42;;;;;;;35.95;16.77;;;;;;;-0.19;86.25;98738.63;1772103;80;21011;-77
2022/12/18 01:58:09;;;;;;;40.80;17.30;;;;;;;-0.20;86.10;98736.44;1771265;80;20973;-76
2022/12/18 02:00:36;;;;;;;41.00;17.65;;;;;;;-0.19;86.00;98742.13;1783888;80;20953;-76
2022/12/18 02:03:03;;;;;;;44.65;18.92;;;;;;;-0.20;85.77;98746.00;1788507;80;20961;-76
2022/12/18 02:05:55;;;;;;;41.37;18.37;;;;;;;-0.21;85.88;98738.59;1788209;80;21007;-75
2022/12/18 02:08:45;;;;;;;44.05;18.37;;;;;;;-0.24;85.78;98746.75;1787925;80;20993;-77
2022/12/18 02:11:23;;;;;;;42.03;18.27;;;;;;;-0.30;86.13;98748.77;1783768;80;20973;-76
2022/12/18 02:14:11;;;;;;;44.55;18.17;;;;;;;-0.33;86.01;98755.22;1788050;80;21373;-76
2022/12/18 02:17:00;;;;;;;45.40;20.20;;;;;;;-0.38;86.03;98749.86;1768926;80;20969;-76
2022/12/18 02:20:17;;;;;;;45.67;18.85;;;;;;;-0.41;86.36;98753.71;1786544;80;20980;-76
2022/12/18 02:23:12;;;;;;;40.85;18.35;;;;;;;-0.48;86.62;98756.97;1783896;80;21574;-76
2022/12/18 02:26:19;;;;;;;43.90;17.80;;;;;;;-0.54;86.68;98769.43;1752379;80;21035;-76
2022/12/18 02:28:55;;;;;;;45.48;19.75;;;;;;;-0.57;86.76;98771.94;1788372;80;21413;-76
2022/12/18 02:31:28;;;;;;;46.28;19.02;;;;;;;-0.59;86.83;98781.00;1757776;80;21386;-76
2022/12/18 02:34:02;;;;;;;47.00;19.42;;;;;;;-0.61;86.94;98782.69;1780027;80;21008;-76
2022/12/18 02:36:33;;;;;;;46.80;20.05;;;;;;;-0.60;86.96;98784.86;1772333;80;20979;-76
2022/12/18 02:39:02;;;;;;;46.33;18.60;;;;;;;-0.61;86.90;98790.91;1758721;80;21503;-76
2022/12/18 02:41:31;;;;;;;42.75;18.30;;;;;;;-0.58;87.08;98781.89;1788060;80;21032;-76
2022/12/18 02:44:01;;;;;;;44.35;18.80;;;;;;;-0.59;86.99;98784.01;1788107;80;21422;-77
2022/12/18 02:46:38;;;;;;;42.83;18.05;;;;;;;-0.60;87.01;98780.95;1787185;80;20984;-77
2022/12/18 02:49:32;;;;;;;40.10;18.50;;;;;;;-0.59;87.24;98784.91;1779223;80;20969;-77
2022/12/18 02:52:43;;;;;;;37.42;16.62;;;;;;;-0.58;86.93;98794.47;1783359;80;21040;-76
2022/12/18 02:55:37;;;;;;;36.90;15.98;;;;;;;-0.59;87.31;98795.73;1782842;80;20949;-76
2022/12/18 02:58:40;;;;;;;37.48;16.02;;;;;;;-0.72;87.03;98800.60;1788321;80;20972;-76
2022/12/18 03:01:13;;;;;;;35.55;16.27;;;;;;;-0.69;87.27;98815.02;1775528;80;21025;-76
2022/12/18 03:03:45;;;;;;;36.42;16.82;;;;;;;-0.62;87.44;98822.56;1780619;80;20993;-76
2022/12/18 03:06:39;;;;;;;33.18;15.45;;;;;;;-0.57;87.34;98826.20;1784561;80;20981;-76
2022/12/18 03:09:11;;;;;;;41.65;16.20;;;;;;;-0.52;87.21;98833.24;1788490;80;21056;-75
2022/12/18 03:14:31;;;;;;;38.25;16.60;;;;;;;-0.50;86.80;98835.05;1785265;80;20952;-76
2022/12/18 03:17:02;;;;;;;34.43;15.68;;;;;;;-0.47;86.98;98840.77;1750882;80;21013;-76
2022/12/18 03:19:34;;;;;;;34.60;16.27;;;;;;;-0.44;86.77;98848.27;1757282;80;20945;-76
2022/12/18 03:22:04;;;;;;;34.30;15.90;;;;;;;-0.37;86.85;98853.23;1788285;80;20949;-76
2022/12/18 03:24:37;;;;;;;32.80;15.90;;;;;;;-0.35;86.92;98854.55;1786691;80;21457;-76
2022/12/18 03:27:09;;;;;;;32.03;16.32;;;;;;;-0.26;87.00;98854.81;1787812;80;21020;-77
2022/12/18 03:29:41;;;;;;;33.73;15.88;;;;;;;-0.24;86.42;98857.47;1787851;80;21004;-77
2022/12/18 03:32:14;;;;;;;33.75;15.00;;;;;;;-0.25;86.43;98856.58;1788305;80;21063;-77
2022/12/18 03:34:44;;;;;;;33.65;14.90;;;;;;;-0.24;86.13;98870.09;1779132;80;21502;-76
2022/12/18 03:37:12;;;;;;;32.25;15.20;;;;;;;-0.22;86.34;98876.21;1757719;79;20989;-77
2022/12/18 03:39:42;;;;;;;36.13;16.97;;;;;;;-0.20;86.11;98885.38;1768705;79;20994;-76
2022/12/18 03:42:53;;;;;;;38.65;16.25;;;;;;;-0.15;86.34;98885.09;1768368;79;21075;-76
2022/12/18 03:45:34;;;;;;;34.73;16.00;;;;;;;-0.12;86.30;98893.41;1757359;79;20972;-77
2022/12/18 03:48:11;;;;;;;40.75;17.12;;;;;;;-0.09;85.95;98898.28;1790711;80;21762;-76
2022/12/18 03:51:00;;;;;;;34.75;16.23;;;;;;;-0.14;85.88;98898.16;1764962;79;21029;-77
2022/12/18 03:53:41;;;;;;;33.40;15.98;;;;;;;-0.13;85.62;98902.94;1790857;80;20974;-76
2022/12/18 03:56:10;;;;;;;34.03;15.88;;;;;;;-0.13;85.97;98906.84;1788991;80;20946;-76
2022/12/18 03:58:40;;;;;;;39.63;17.20;;;;;;;-0.14;85.54;98919.01;1784655;80;21579;-76
2022/12/18 04:01:12;;;;;;;34.58;15.72;;;;;;;-0.15;85.65;98923.77;1772077;80;20975;-75
2022/12/18 04:03:42;;;;;;;33.42;15.23;;;;;;;-0.15;85.39;98915.95;1757676;80;21087;-77
2022/12/18 04:06:11;;;;;;;35.65;16.60;;;;;;;-0.20;85.26;98923.16;1789898;80;21430;-76
2022/12/18 04:08:41;;;;;;;42.53;17.87;;;;;;;-0.20;85.41;98927.92;1759967;80;21028;-76
2022/12/18 04:11:08;;;;;;;36.38;16.60;;;;;;;-0.10;84.99;98932.10;1772460;80;20989;-76
2022/12/18 04:13:37;;;;;;;36.63;16.37;;;;;;;-0.06;84.48;98940.47;1787450;80;21043;-76
2022/12/18 04:16:06;;;;;;;38.70;17.02;;;;;;;-0.04;84.13;98941.42;1767305;80;21008;-76
2022/12/18 04:18:35;;;;;;;40.90;17.37;;;;;;;-0.08;83.95;98936.52;1769884;80;21056;-76
2022/12/18 04:21:03;;;;;;;37.20;16.42;;;;;;;-0.29;84.27;98945.92;1784647;80;21052;-77
2022/12/18 04:23:31;;;;;;;39.63;18.00;;;;;;;-0.32;84.61;98943.22;1770687;80;20982;-76
2022/12/18 04:25:58;;;;;;;40.45;17.57;;;;;;;-0.25;85.09;98951.66;1783999;79;21025;-76
2022/12/18 04:28:32;;;;;;;39.33;17.85;;;;;;;-0.19;85.28;98957.08;1788954;80;21035;-76
2022/12/18 04:30:59;;;;;;;44.27;19.87;;;;;;;-0.13;85.12;98961.56;1788519;79;21549;-76
2022/12/18 04:33:25;;;;;;;45.80;19.73;;;;;;;-0.11;84.81;98963.81;1772919;80;21028;-76
2022/12/18 04:35:52;;;;;;;41.68;18.65;;;;;;;-0.09;84.33;98964.72;1793720;80;20958;-76
2022/12/18 04:38:19;;;;;;;43.15;19.07;;;;;;;-0.08;84.52;98973.44;1772783;80;20946;-76
2022/12/18 04:40:46;;;;;;;43.05;19.98;;;;;;;-0.12;84.61;98972.87;1764991;79;20985;-77
2022/12/18 04:43:15;;;;;;;44.60;19.67;;;;;;;-0.11;84.67;98968.12;1788233;80;21417;-77
2022/12/18 04:45:41;;;;;;;43.13;19.25;;;;;;;-0.10;84.50;98973.80;1782507;79;20980;-77
2022/12/18 04:48:08;;;;;;;43.42;19.15;;;;;;;-0.17;84.24;98976.23;1779360;80;20998;-77
2022/12/18 04:50:35;;;;;;;42.83;19.25;;;;;;;-0.18;84.59;98977.48;1784321;79;21008;-77
2022/12/18 04:53:02;;;;;;;42.50;18.87;;;;;;;-0.14;84.62;98978.04;1782005;80;20955;-76
2022/12/18 04:55:29;;;;;;;42.90;18.00;;;;;;;-0.16;84.09;98980.59;1787313;79;21051;-76
2022/12/18 04:57:56;;;;;;;46.28;20.32;;;;;;;-0.19;84.25;98977.92;1793440;79;21021;-77
2022/12/18 05:00:22;;;;;;;36.75;17.48;;;;;;;-0.22;84.29;98986.04;1788127;79;20913;-76
2022/12/18 05:02:49;;;;;;;43.90;19.30;;;;;;;-0.23;84.59;98994.30;1769070;80;20977;-76
2022/12/18 05:05:16;;;;;;;41.42;18.67;;;;;;;-0.18;84.66;98995.31;1776482;79;20970;-76
2022/12/18 05:07:42;;;;;;;43.65;19.62;;;;;;;-0.15;84.49;98995.83;1790103;79;20969;-76
2022/12/18 05:10:10;;;;;;;40.17;17.92;;;;;;;-0.14;84.72;99004.09;1777503;79;21001;-76
2022/12/18 05:12:57;;;;;;;45.58;19.45;;;;;;;-0.09;84.66;99004.25;1788516;79;21044;-76
2022/12/18 05:15:09;;;;;;;46.30;20.62;;;;;;;-0.06;84.57;99003.02;1789872;79;20986;-77
2022/12/18 05:17:37;;;;;;;41.15;18.45;;;;;;;-0.10;84.32;99008.97;1767502;79;21096;-77
2022/12/18 05:20:05;;;;;;;43.68;19.17;;;;;;;-0.11;84.07;99017.64;1794059;79;20958;-77
2022/12/18 05:22:32;;;;;;;43.83;18.98;;;;;;;-0.13;84.14;99016.28;1771782;79;21346;-77
2022/12/18 05:25:00;;;;;;;39.03;18.02;;;;;;;-0.14;84.29;99023.23;1773950;79;20939;-77
2022/12/18 05:27:27;;;;;;;41.90;19.17;;;;;;;-0.11;84.29;99024.15;1768836;79;21024;-77
2022/12/18 05:29:54;;;;;;;39.18;17.55;;;;;;;-0.09;84.13;99030.31;1794214;79;20978;-77
2022/12/18 05:32:20;;;;;;;39.03;17.73;;;;;;;-0.07;84.31;99039.94;1791974;79;20955;-76
2022/12/18 05:34:47;;;;;;;39.85;18.27;;;;;;;-0.09;83.18;99039.44;1775348;79;21345;-76
2022/12/18 05:37:15;;;;;;;41.77;18.67;;;;;;;-0.18;83.25;99039.61;1773332;79;20965;-75
2022/12/18 05:39:43;;;;;;;44.65;19.52;;;;;;;-0.25;83.43;99039.38;1780819;80;20993;-75
2022/12/18 05:42:10;;;;;;;43.30;19.12;;;;;;;-0.23;83.78;99050.31;1786950;79;20996;-77
2022/12/18 05:44:37;;;;;;;40.80;19.17;;;;;;;-0.19;83.90;99050.88;1794167;79;21371;-77
2022/12/18 05:47:04;;;;;;;42.73;18.85;;;;;;;-0.19;83.75;99054.78;1769031;79;20985;-77
2022/12/18 05:49:30;;;;;;;43.05;19.50;;;;;;;-0.20;83.59;99056.89;1772688;79;21009;-78
2022/12/18 05:51:58;;;;;;;46.13;18.32;;;;;;;-0.20;83.60;99060.80;1727274;82;21552;-78
2022/12/18 05:54:28;;;;;;;45.38;19.02;;;;;;;-0.24;83.48;99066.78;1729526;82;21148;-75
2022/12/18 05:56:54;;;;;;;42.50;19.98;;;;;;;-0.23;83.68;99072.45;1721391;82;21066;-74
2022/12/18 05:59:22;;;;;;;43.28;18.73;;;;;;;-0.20;83.50;99078.17;1725828;82;20959;-74
2022/12/18 06:01:49;;;;;;;43.10;19.23;;;;;;;-0.25;82.91;99075.85;1727066;82;21489;-74
2022/12/18 06:04:15;;;;;;;42.17;18.92;;;;;;;-0.23;83.55;99077.66;1732716;82;21026;-74
2022/12/18 06:06:42;;;;;;;40.63;18.85;;;;;;;-0.20;83.36;99088.16;1730268;82;21044;-74
2022/12/18 06:09:09;;;;;;;45.17;19.02;;;;;;;-0.25;82.90;99086.27;1726153;82;20979;-74
2022/12/18 06:11:38;;;;;;;50.08;20.27;;;;;;;-0.26;83.17;99095.80;1728651;82;21451;-74
2022/12/18 06:14:06;;;;;;;44.53;19.80;;;;;;;-0.23;83.32;99105.02;1726780;82;21042;-74
2022/12/18 06:16:33;;;;;;;45.35;19.55;;;;;;;-0.25;83.33;99105.81;1720771;82;20969;-74
2022/12/18 06:19:01;;;;;;;47.15;20.12;;;;;;;-0.19;83.36;99108.60;1719395;82;21034;-74
2022/12/18 06:21:29;;;;;;;42.65;18.62;;;;;;;-0.19;82.97;99115.11;1730873;82;20990;-74
2022/12/18 06:23:56;;;;;;;46.20;21.25;;;;;;;-0.33;81.93;99125.97;1742459;82;20938;-74
2022/12/18 06:26:23;;;;;;;45.90;21.05;;;;;;;-0.37;82.16;99134.55;1720766;82;21001;-74
2022/12/18 06:28:50;;;;;;;46.92;19.32;;;;;;;-0.52;81.82;99136.21;1718956;82;20984;-74
2022/12/18 06:31:16;;;;;;;48.42;20.05;;;;;;;-0.58;82.54;99134.71;1732173;82;21007;-74
2022/12/18 06:33:43;;;;;;;50.10;21.23;;;;;;;-0.54;83.04;99134.85;1731624;82;20987;-74
2022/12/18 06:36:12;;;;;;;49.00;20.62;;;;;;;-0.49;83.26;99136.33;1739281;82;21053;-74
2022/12/18 06:38:42;;;;;;;47.67;21.60;;;;;;;-0.47;83.27;99138.95;1728724;82;21427;-73
2022/12/18 06:41:16;;;;;;;46.55;20.23;;;;;;;-0.47;83.29;99142.45;1723234;82;21015;-73
2022/12/18 06:43:44;;;;;;;51.02;18.95;;;;;;;-0.44;83.40;99156.00;1732476;82;20995;-74
2022/12/18 06:46:12;;;;;;;41.90;18.82;;;;;;;-0.43;83.40;99162.56;1736923;82;20989;-75
2022/12/18 06:48:38;;;;;;;46.85;20.00;;;;;;;-0.39;83.20;99172.66;1724623;82;20981;-75
2022/12/18 06:51:06;;;;;;;42.55;18.87;;;;;;;-0.42;82.45;99178.66;1754120;80;21461;-75
2022/12/18 06:53:33;;;;;;;45.20;19.45;;;;;;;-0.44;82.69;99180.34;1783492;79;20998;-75
2022/12/18 06:56:03;;;;;;;45.58;19.55;;;;;;;-0.41;83.05;99180.42;1775460;80;21008;-75
2022/12/18 06:58:29;;;;;;;46.08;18.10;;;;;;;-0.36;83.08;99184.50;1782135;80;21020;-75
2022/12/18 07:01:05;;;;;;;41.73;19.00;;;;;;;-0.39;82.34;99186.98;1772278;79;20945;-75
2022/12/18 07:03:32;;;;;;;50.55;20.68;;;;;;;-0.40;82.57;99189.13;1772395;79;20977;-75
2022/12/18 07:05:58;;;;;;;40.98;17.37;;;;;;;-0.40;82.71;99201.72;1791212;80;20963;-75
2022/12/18 07:08:25;;;;;;;43.00;18.30;;;;;;;-0.45;81.53;99206.33;1770800;80;21005;-75
2022/12/18 07:10:53;;;;;;;45.10;19.73;;;;;;;-0.48;82.27;99210.11;1771283;80;21386;-75
2022/12/18 07:13:20;;;;;;;40.63;18.42;;;;;;;-0.43;82.61;99212.45;1786258;79;21037;-75
2022/12/18 07:15:46;;;;;;;43.63;19.30;;;;;;;-0.44;81.92;99216.80;1781919;80;21370;-75
2022/12/18 07:18:14;;;;;;;46.15;19.42;;;;;;;-0.46;81.66;99222.79;1766935;80;21437;-75
2022/12/18 07:20:40;;;;;;;43.28;18.90;;;;;;;-0.44;81.75;99223.72;1773138;79;20997;-75
2022/12/18 07:23:07;;;;;;;42.78;18.87;;;;;;;-0.44;81.68;99222.02;1781596;80;21374;-75
2022/12/18 07:25:38;;;;;;;41.02;17.42;;;;;;;-0.43;81.70;99226.78;1788887;80;20966;-75
2022/12/18 07:28:04;;;;;;;42.05;19.50;;;;;;;-0.46;79.97;99230.60;1779990;79;21036;-75
2022/12/18 07:30:31;;;;;;;40.55;16.95;;;;;;;-0.51;80.53;99230.86;1776804;80;20945;-75
2022/12/18 07:32:59;;;;;;;40.85;18.17;;;;;;;-0.53;80.61;99226.90;1779548;79;21406;-75
2022/12/18 07:35:25;;;;;;;38.80;15.58;;;;;;;-0.48;81.27;99239.66;1780060;79;21013;-75
2022/12/18 07:37:52;;;;;;;35.50;14.95;;;;;;;-0.46;80.25;99247.09;1788081;79;21381;-75
2022/12/18 07:40:18;;;;;;;35.50;15.32;;;;;;;-0.50;80.25;99245.22;1768702;80;20989;-75
2022/12/18 07:42:45;;;;;;;35.98;15.10;;;;;;;-0.50;80.29;99250.42;1785227;80;21421;-75
2022/12/18 07:45:11;;;;;;;31.10;14.47;;;;;;;-0.49;80.24;99248.72;1781088;79;21035;-75
2022/12/18 07:47:38;;;;;;;31.00;13.62;;;;;;;-0.48;78.55;99246.58;1789104;80;20981;-75
2022/12/18 07:50:06;;;;;;;32.58;13.38;;;;;;;-0.50;79.16;99246.95;1759296;80;21444;-75
2022/12/18 07:52:32;;;;;;;31.42;12.20;;;;;;;-0.47;79.53;99258.36;1764933;81;21432;-75
2022/12/18 07:55:02;;;;;;;34.40;14.05;;;;;;;-0.42;79.96;99262.41;1777826;80;21005;-74
2022/12/18 07:57:28;;;;;;;32.30;14.47;;;;;;;-0.37;79.85;99263.89;1763256;81;20965;-75
2022/12/18 07:59:55;;;;;;;32.58;13.65;;;;;;;-0.32;80.17;99265.84;1775437;80;21421;-75
2022/12/18 08:02:22;;;;;;;31.20;13.45;;;;;;;-0.24;80.18;99270.00;1766327;80;21001;-75
2022/12/18 08:04:48;;;;;;;31.62;13.22;;;;;;;-0.26;78.84;99269.05;1776948;80;20954;-75
2022/12/18 08:07:15;;;;;;;33.08;12.33;;;;;;;-0.24;79.41;99276.52;1778010;81;20984;-75
2022/12/18 08:09:43;;;;;;;29.18;14.03;;;;;;;-0.18;79.59;99281.94;1778028;80;20982;-75
2022/12/18 08:12:10;;;;;;;32.60;12.98;;;;;;;-0.19;78.75;99289.28;1770750;80;21021;-76
2022/12/18 08:14:37;;;;;;;31.00;13.03;;;;;;;-0.21;78.74;99288.33;1769986;81;21017;-74
2022/12/18 08:17:03;;;;;;;29.07;13.50;;;;;;;-0.20;78.64;99296.61;1763735;81;21004;-75
2022/12/18 08:19:30;;;;;;;38.33;14.98;;;;;;;-0.11;79.36;99304.28;1771943;80;20993;-74
2022/12/18 08:21:56;;;;;;;32.15;14.10;;;;;;;-0.08;78.76;99305.27;1776407;80;21425;-75
2022/12/18 08:24:23;;;;;;;34.23;14.87;;;;;;;-0.06;79.03;99307.94;1772227;80;21020;-75
2022/12/18 08:26:50;;;;;;;33.70;14.68;;;;;;;-0.10;77.18;99306.05;1777911;80;21004;-75
2022/12/18 08:29:18;;;;;;;32.67;14.73;;;;;;;-0.15;78.17;99314.63;1770929;80;21000;-75
2022/12/18 08:31:45;;;;;;;32.70;14.53;;;;;;;-0.08;78.94;99314.83;1752601;80;21023;-75
2022/12/18 08:34:12;;;;;;;31.40;13.58;;;;;;;-0.08;78.16;99313.52;1761996;81;20922;-76
2022/12/18 08:36:39;;;;;;;30.95;14.38;;;;;;;-0.06;78.81;99315.75;1766683;80;20973;-76
2022/12/18 08:39:11;;;;;;;33.33;14.05;;;;;;;-0.03;78.55;99318.04;1768153;81;21363;-75
2022/12/18 08:41:41;;;;;;;30.05;14.05;;;;;;;-0.03;78.07;99323.69;1702140;84;21152;-76
2022/12/18 08:46:55;;;;;;;33.05;13.28;;;;;;;-0.06;77.11;99328.78;1706909;83;21001;-76
2022/12/18 08:49:21;;;;;;;33.45;15.23;;;;;;;-0.13;77.13;99319.86;1709432;83;21416;-76
2022/12/18 08:51:59;;;;;;;29.77;13.62;;;;;;;-0.09;77.99;99315.23;1711395;83;21078;-76
2022/12/18 08:54:28;;;;;;;31.35;13.88;;;;;;;-0.03;78.09;99322.39;1710049;82;21045;-75
2022/12/18 08:56:55;;;;;;;31.52;13.50;;;;;;;0.02;77.87;99319.52;1703725;82;21045;-75
2022/12/18 08:59:23;;;;;;;27.52;12.75;;;;;;;0.05;77.64;99320.05;1703421;83;21044;-75
2022/12/18 09:01:49;;;;;;;28.20;12.68;;;;;;;0.08;77.46;99321.02;1705685;83;21540;-75
2022/12/18 09:04:16;;;;;;;23.80;11.83;;;;;;;0.10;77.40;99331.52;1710454;82;21041;-75
2022/12/18 09:06:43;;;;;;;26.25;12.68;;;;;;;0.17;77.35;99328.70;1719115;83;20956;-75
2022/12/18 09:09:11;;;;;;;23.42;10.98;;;;;;;0.18;76.14;99336.58;1705446;83;21025;-75
2022/12/18 09:11:37;;;;;;;23.42;11.05;;;;;;;0.14;75.95;99333.39;1702991;82;21051;-75
2022/12/18 09:14:04;;;;;;;25.43;11.57;;;;;;;0.10;75.95;99338.92;1710099;82;21026;-77
2022/12/18 09:16:32;;;;;;;29.00;12.75;;;;;;;0.15;75.72;99338.17;1705671;82;21034;-77
2022/12/18 09:19:00;;;;;;;25.80;12.07;;;;;;;0.11;75.12;99333.28;1693328;82;21011;-76
2022/12/18 09:21:33;;;;;;;25.88;12.20;;;;;;;0.07;74.86;99332.70;1709182;83;20978;-76
2022/12/18 09:24:00;;;;;;;26.23;12.47;;;;;;;0.18;75.47;99344.41;1704163;82;21068;-76
2022/12/18 09:26:27;;;;;;;27.67;13.32;;;;;;;0.20;75.34;99340.11;1713943;82;21014;-76
2022/12/18 09:28:55;;;;;;;28.25;12.78;;;;;;;0.25;75.45;99339.84;1702366;82;21118;-76
2022/12/18 09:31:24;;;;;;;28.77;12.85;;;;;;;0.24;74.15;99335.48;1701550;83;20935;-76
2022/12/18 09:33:51;;;;;;;26.07;12.05;;;;;;;0.29;75.39;99336.05;1701430;83;20967;-76
2022/12/18 09:36:19;;;;;;;27.52;11.95;;;;;;;0.36;75.57;99331.09;1700040;82;20981;-76
2022/12/18 09:38:45;;;;;;;28.50;12.28;;;;;;;0.45;75.03;99340.93;1715746;83;20961;-76
2022/12/18 09:41:55;;;;;;;29.02;12.80;;;;;;;0.53;75.57;99338.57;1759637;80;21644;-76
2022/12/18 09:44:31;;;;;;;27.60;11.38;;;;;;;0.62;75.74;99335.39;1762167;79;21370;-74
2022/12/18 09:47:18;;;;;;;26.95;12.73;;;;;;;0.64;74.90;99335.02;1761603;80;20969;-74
2022/12/18 09:49:52;;;;;;;27.07;11.65;;;;;;;0.74;75.71;99340.09;1733081;81;21025;-74
2022/12/18 09:52:36;;;;;;;24.60;11.05;;;;;;;0.76;71.76;99335.42;1763430;80;21475;-73
2022/12/18 09:55:20;;;;;;;22.93;10.70;;;;;;;0.69;73.98;99336.45;1760982;79;20989;-73
2022/12/18 09:57:53;;;;;;;26.15;11.63;;;;;;;0.75;74.53;99335.36;1784051;80;20962;-72
2022/12/18 10:00:25;;;;;;;26.68;11.20;;;;;;;0.79;74.30;99332.02;1774860;80;21044;-73
2022/12/18 10:03:00;;;;;;;24.72;11.40;;;;;;;0.85;74.37;99336.52;1761753;80;20995;-72
2022/12/18 10:06:02;;;;;;;21.07;10.13;;;;;;;0.89;73.71;99326.25;1767278;80;21001;-73
2022/12/18 10:08:49;;;;;;;23.73;10.78;;;;;;;0.85;72.97;99340.44;1774858;80;20968;-72
2022/12/18 10:11:42;;;;;;;19.40;8.73;;;;;;;0.77;72.81;99341.50;1770291;79;21017;-72
2022/12/18 10:14:17;;;;;;;24.02;9.28;;;;;;;0.69;70.80;99336.45;1775268;80;21000;-73
2022/12/18 10:17:16;;;;;;;22.40;9.33;;;;;;;0.65;71.88;99345.50;1768888;80;21020;-73
2022/12/18 10:20:07;;;;;;;17.87;8.25;;;;;;;0.61;70.43;99350.55;1778037;80;21025;-72
2022/12/18 10:23:02;;;;;;;22.77;9.78;;;;;;;0.53;71.21;99339.88;1775245;80;21423;-72
2022/12/18 10:25:55;;;;;;;21.23;10.08;;;;;;;0.52;71.66;99348.14;1763213;80;21488;-74
2022/12/18 10:28:24;;;;;;;20.37;9.80;;;;;;;0.57;72.47;99349.58;1660600;83;20992;-74
2022/12/18 10:30:51;;;;;;;30.72;13.58;;;;;;;0.63;72.58;99342.38;1737931;80;21038;-73
2022/12/18 10:33:22;;;;;;;19.17;8.60;;;;;;;0.60;72.04;99351.41;1780127;79;20946;-72
2022/12/18 10:35:51;;;;;;;19.17;8.38;;;;;;;0.57;71.29;99346.07;1761384;79;20997;-73
2022/12/18 10:38:23;;;;;;;18.90;9.15;;;;;;;0.61;72.55;99342.73;1754814;80;21394;-73
2022/12/18 10:41:08;;;;;;;19.35;7.90;;;;;;;0.65;72.94;99345.50;1760370;80;21018;-73
2022/12/18 10:43:38;;;;;;;15.28;7.58;;;;;;;0.66;72.27;99347.67;1782870;80;20971;-72
2022/12/18 10:46:13;;;;;;;15.28;6.90;;;;;;;0.61;72.08;99347.55;1764907;80;21012;-72
2022/12/18 10:48:53;;;;;;;16.05;7.60;;;;;;;0.52;69.22;99347.23;1785888;80;20989;-73
2022/12/18 10:51:30;;;;;;;15.78;6.85;;;;;;;0.48;70.25;99351.48;1771207;80;21009;-72
2022/12/18 10:54:04;;;;;;;15.72;7.00;;;;;;;0.35;68.15;99361.02;1765515;79;20982;-72
2022/12/18 10:56:35;;;;;;;17.65;7.85;;;;;;;0.32;69.75;99356.59;1770160;80;20996;-72
2022/12/18 10:59:06;;;;;;;16.70;6.90;;;;;;;0.28;68.82;99354.71;1758778;79;21351;-72
2022/12/18 11:01:57;;;;;;;18.65;8.33;;;;;;;0.19;69.07;99351.78;1776452;79;20949;-73
2022/12/18 11:04:31;;;;;;;15.85;7.53;;;;;;;0.21;70.29;99357.52;1758043;80;21004;-72
2022/12/18 11:07:02;;;;;;;15.53;7.60;;;;;;;0.26;70.43;99361.17;1780300;79;20973;-72
2022/12/18 11:09:35;;;;;;;17.82;7.92;;;;;;;0.28;70.43;99359.06;1777163;79;20979;-72
2022/12/18 11:12:14;;;;;;;17.57;7.85;;;;;;;0.36;71.00;99359.78;1769868;80;21403;-71
2022/12/18 11:14:52;;;;;;;12.80;6.78;;;;;;;0.46;70.73;99361.39;1780663;79;21437;-71
2022/12/18 11:17:27;;;;;;;15.03;6.92;;;;;;;0.50;71.02;99358.05;1757143;79;21388;-72
2022/12/18 11:19:59;;;;;;;16.87;7.92;;;;;;;0.55;70.41;99363.00;1789122;80;21009;-72
2022/12/18 11:22:35;;;;;;;14.93;6.20;;;;;;;0.60;69.75;99369.66;1788006;79;21036;-72
2022/12/18 11:25:16;;;;;;;17.70;6.87;;;;;;;0.60;69.48;99367.95;1767308;79;21039;-73
2022/12/18 11:27:51;;;;;;;16.40;7.30;;;;;;;0.62;70.00;99367.57;1767959;79;20984;-73
2022/12/18 11:30:31;;;;;;;13.88;6.78;;;;;;;0.63;68.11;99364.12;1760702;79;20996;-72
2022/12/18 11:33:18;;;;;;;13.43;7.12;;;;;;;0.63;68.09;99363.25;1757086;79;21000;-72
2022/12/18 11:35:57;;;;;;;14.53;7.17;;;;;;;0.65;69.32;99361.56;1765368;79;21057;-72
2022/12/18 11:38:32;;;;;;;24.20;11.48;;;;;;;0.75;70.04;99370.16;1763783;79;20992;-72
2022/12/18 11:41:22;;;;;;;34.88;15.75;;;;;;;0.74;68.84;99369.70;1762694;79;20977;-73
2022/12/18 11:44:02;;;;;;;12.90;6.35;;;;;;;0.79;69.58;99370.73;1773244;79;21064;-73
2022/12/18 11:46:40;;;;;;;16.12;7.08;;;;;;;0.78;67.76;99374.19;1777175;80;20996;-72
2022/12/18 11:49:17;;;;;;;14.85;7.33;;;;;;;0.79;68.98;99368.55;1743572;79;20961;-72